Ceredo, West Virginia
Current Conditions -  °F | °C
As of 4:51 PM on Friday 24 Oct 2014 (Local Time) from KHTS Reporting Station
Clear Clear  
Wind Chill: 64°   Ceiling: Unl
Heat Index: 64°   Visibility: 10mi
Dew Point: 42°   Wind: 3mph
Humidity: 45%   Direction: 10°N
Pressure: 30.03"   Gusts: NA
Location:  38.4°N, 82.56°W
Report Text: KHTS 242051Z 01003KT 10SM CLR 18/06 A3003 RMK AO2 SLP170 T01780056 56014
Loading
Personal Weather Stations






























Interactive Weather Map
Tropical Storm Tracking
New forecast layout! Learn more

10-Day Weather Forecast

Advertisements
Track Severe Weather on mobile